createdAt,value
2022-12-08T00:02:18.230Z,14.10
2022-12-08T00:05:03.686Z,18.52
2022-12-08T00:07:48.823Z,12.75
2022-12-08T00:10:47.179Z,9.77
2022-12-08T00:13:02.059Z,13.15
2022-12-08T00:15:28.395Z,11.70
2022-12-08T00:17:54.702Z,11.65
2022-12-08T00:20:21.007Z,11.55
2022-12-08T00:22:47.308Z,10.82
2022-12-08T00:25:14.604Z,12.77
2022-12-08T00:27:40.976Z,10.13
2022-12-08T00:30:07.949Z,9.43
2022-12-08T00:32:34.259Z,9.18
2022-12-08T00:35:00.810Z,13.18
2022-12-08T00:37:27.236Z,9.70
2022-12-08T00:39:53.554Z,12.25
2022-12-08T00:42:19.924Z,12.38
2022-12-08T00:44:46.777Z,12.18
2022-12-08T00:47:13.668Z,10.15
2022-12-08T00:49:40.375Z,11.65
2022-12-08T00:52:06.810Z,11.98
2022-12-08T00:54:33.162Z,8.15
2022-12-08T00:56:59.552Z,11.82
2022-12-08T00:59:25.879Z,10.25
2022-12-08T01:01:52.238Z,8.65
2022-12-08T01:04:19.706Z,10.20
2022-12-08T01:06:46.896Z,9.63
2022-12-08T01:09:14.647Z,10.18
2022-12-08T01:11:40.959Z,11.57
2022-12-08T01:14:07.292Z,8.43
2022-12-08T01:16:35.884Z,11.32
2022-12-08T01:19:03.302Z,9.55
2022-12-08T01:21:29.673Z,9.10
2022-12-08T01:23:57.782Z,16.88
2022-12-08T01:26:24.089Z,10.68
2022-12-08T01:28:50.569Z,11.18
2022-12-08T01:31:19.830Z,13.10
2022-12-08T01:33:46.947Z,12.77
2022-12-08T01:36:28.015Z,14.75
2022-12-08T01:38:57.399Z,10.77
2022-12-08T01:41:26.093Z,12.55
2022-12-08T01:44:02.271Z,13.90
2022-12-08T01:46:31.447Z,13.13
2022-12-08T01:49:06.951Z,16.48
2022-12-08T01:51:38.382Z,11.40
2022-12-08T01:54:06.596Z,13.27
2022-12-08T01:56:41.412Z,14.63
2022-12-08T01:59:07.905Z,12.25
2022-12-08T02:01:34.277Z,13.15
2022-12-08T02:04:02.846Z,14.10
2022-12-08T02:06:33.633Z,17.33
2022-12-08T02:09:01.169Z,15.50
2022-12-08T02:11:27.693Z,13.20
2022-12-08T02:13:54.975Z,17.65
2022-12-08T02:16:42.082Z,18.23
2022-12-08T02:20:06.237Z,15.25
2022-12-08T02:22:40.092Z,10.98
2022-12-08T02:25:26.816Z,12.93
2022-12-08T02:28:24.005Z,10.85
2022-12-08T02:31:02.643Z,12.80
2022-12-08T02:33:52.201Z,17.20
2022-12-08T02:36:36.493Z,14.50
2022-12-08T02:39:25.981Z,14.63
2022-12-08T02:42:01.387Z,13.90
2022-12-08T02:44:32.041Z,16.25
2022-12-08T02:47:05.690Z,13.95
2022-12-08T02:49:34.309Z,15.13
2022-12-08T02:52:10.122Z,14.95
2022-12-08T02:54:37.200Z,11.80
2022-12-08T02:57:18.444Z,6.57
2022-12-08T03:00:13.854Z,12.80
2022-12-08T03:02:59.183Z,5.95
2022-12-08T03:05:31.587Z,9.82
2022-12-08T03:08:29.148Z,12.70
2022-12-08T03:11:04.848Z,10.45
2022-12-08T03:13:40.928Z,17.00
2022-12-08T03:16:10.966Z,12.43
2022-12-08T03:18:44.211Z,4.43
2022-12-08T03:21:12.662Z,12.45
2022-12-08T03:23:41.890Z,11.73
2022-12-08T03:26:27.183Z,11.52
2022-12-08T03:28:54.014Z,8.90
2022-12-08T03:31:24.376Z,10.05
2022-12-08T03:33:54.759Z,7.72
2022-12-08T03:36:21.983Z,9.20
2022-12-08T03:38:52.711Z,11.38
2022-12-08T03:41:21.227Z,10.48
2022-12-08T03:43:49.971Z,12.48
2022-12-08T03:46:17.603Z,14.10
2022-12-08T03:48:44.003Z,10.30
2022-12-08T03:51:11.036Z,10.95
2022-12-08T03:53:37.623Z,15.13
2022-12-08T03:56:14.884Z,8.43
2022-12-08T03:58:42.476Z,11.02
2022-12-08T04:01:09.493Z,11.57
2022-12-08T04:03:35.858Z,10.73
2022-12-08T04:06:02.182Z,9.15
2022-12-08T04:08:28.510Z,11.73
2022-12-08T04:10:54.906Z,11.95
2022-12-08T04:13:21.186Z,12.57
2022-12-08T04:15:48.348Z,13.13
2022-12-08T04:18:15.454Z,11.00
2022-12-08T04:20:43.615Z,7.45
2022-12-08T04:23:12.208Z,4.55
2022-12-08T04:25:38.963Z,8.50
2022-12-08T04:28:05.752Z,8.15
2022-12-08T04:30:32.797Z,5.78
2022-12-08T04:32:59.319Z,8.02
2022-12-08T04:35:25.731Z,4.93
2022-12-08T04:37:52.130Z,7.45
2022-12-08T04:40:18.597Z,6.00
2022-12-08T04:42:44.893Z,4.05
2022-12-08T04:45:11.447Z,6.50
2022-12-08T04:47:37.909Z,6.97
2022-12-08T04:50:05.877Z,7.45
2022-12-08T04:52:32.501Z,8.18
2022-12-08T04:55:02.830Z,5.72
2022-12-08T04:57:29.287Z,6.75
2022-12-08T04:59:55.633Z,6.35
2022-12-08T05:02:22.007Z,5.30
2022-12-08T05:04:48.332Z,5.57
2022-12-08T05:07:14.610Z,6.15
2022-12-08T05:09:41.031Z,6.03
2022-12-08T05:12:07.695Z,6.20
2022-12-08T05:14:34.283Z,5.57
2022-12-08T05:17:04.835Z,2.92
2022-12-08T05:19:34.194Z,4.35
2022-12-08T05:22:00.571Z,6.28
2022-12-08T05:24:26.961Z,7.10
2022-12-08T05:26:53.268Z,4.10
2022-12-08T05:29:19.590Z,4.70
2022-12-08T05:31:46.191Z,5.45
2022-12-08T05:34:12.561Z,5.88
2022-12-08T05:36:38.932Z,3.40
2022-12-08T05:39:05.279Z,5.20
2022-12-08T05:41:31.597Z,3.47
2022-12-08T05:43:57.931Z,6.82
2022-12-08T05:46:24.442Z,2.03
2022-12-08T05:48:50.814Z,2.83
2022-12-08T05:51:22.927Z,5.60
2022-12-08T05:53:51.117Z,4.78
2022-12-08T05:56:18.135Z,3.05
2022-12-08T05:58:44.963Z,3.63
2022-12-08T06:01:31.507Z,5.35
2022-12-08T06:04:00.160Z,2.08
2022-12-08T06:06:27.043Z,4.85
2022-12-08T06:08:53.576Z,3.22
2022-12-08T06:11:24.230Z,5.95
2022-12-08T06:13:51.493Z,4.57
2022-12-08T06:16:18.873Z,2.38
2022-12-08T06:18:45.989Z,2.47
2022-12-08T06:21:14.393Z,1.63
2022-12-08T06:23:41.291Z,2.55
2022-12-08T06:26:13.229Z,4.03
2022-12-08T06:28:40.774Z,2.70
2022-12-08T06:31:19.098Z,3.75
2022-12-08T06:33:45.856Z,1.90
2022-12-08T06:36:14.595Z,6.53
2022-12-08T06:38:43.509Z,4.30
2022-12-08T06:41:11.290Z,4.40
2022-12-08T06:43:38.096Z,3.38
2022-12-08T06:46:08.126Z,2.90
2022-12-08T06:48:34.819Z,2.58
2022-12-08T06:51:09.399Z,2.03
2022-12-08T06:53:36.344Z,2.17
2022-12-08T06:56:03.560Z,2.03
2022-12-08T06:58:29.960Z,3.20
2022-12-08T07:00:56.303Z,9.10
2022-12-08T07:03:22.645Z,2.55
2022-12-08T07:05:49.210Z,3.53
2022-12-08T07:08:15.743Z,5.45
2022-12-08T07:10:42.131Z,2.63
2022-12-08T07:13:08.481Z,2.42
2022-12-08T07:15:34.842Z,3.10
2022-12-08T07:18:01.126Z,7.00
2022-12-08T07:20:27.729Z,6.47
2022-12-08T07:22:54.233Z,4.75
2022-12-08T07:25:20.746Z,3.55
2022-12-08T07:27:47.958Z,5.65
2022-12-08T07:30:14.860Z,6.10
2022-12-08T07:32:41.653Z,5.50
2022-12-08T07:35:09.406Z,4.63
2022-12-08T07:37:37.624Z,1.92
2022-12-08T07:40:05.958Z,3.92
2022-12-08T07:42:32.615Z,3.17
2022-12-08T07:44:59.318Z,3.00
2022-12-08T07:47:25.654Z,4.85
2022-12-08T07:49:51.972Z,4.50
2022-12-08T07:52:18.276Z,3.72
2022-12-08T07:54:44.578Z,5.03
2022-12-08T07:57:10.897Z,3.33
2022-12-08T07:59:37.433Z,4.40
2022-12-08T08:02:22.936Z,4.60
2022-12-08T08:04:51.154Z,3.70
2022-12-08T08:09:51.701Z,6.85
2022-12-08T08:12:33.617Z,4.93
2022-12-08T08:15:01.664Z,2.35
2022-12-08T08:17:29.120Z,3.50
2022-12-08T08:19:55.830Z,2.97
2022-12-08T08:22:22.168Z,2.83
2022-12-08T08:24:48.498Z,4.38
2022-12-08T08:27:15.142Z,4.00
2022-12-08T08:29:41.543Z,3.33
2022-12-08T08:32:07.873Z,2.33
2022-12-08T08:34:34.398Z,4.82
2022-12-08T08:37:00.776Z,3.95
2022-12-08T08:39:27.306Z,4.47
2022-12-08T08:41:53.642Z,3.85
2022-12-08T08:44:19.951Z,8.95
2022-12-08T08:46:47.891Z,2.85
2022-12-08T08:49:14.243Z,4.63
2022-12-08T08:51:40.714Z,5.50
2022-12-08T08:54:07.022Z,5.25
2022-12-08T08:56:33.343Z,5.13
2022-12-08T08:58:59.733Z,6.55
2022-12-08T09:01:27.787Z,5.30
2022-12-08T09:03:55.256Z,6.88
2022-12-08T09:06:23.340Z,7.05
2022-12-08T09:08:50.456Z,7.35
2022-12-08T09:11:18.406Z,7.05
2022-12-08T09:13:48.264Z,5.97
2022-12-08T09:16:14.928Z,6.18
2022-12-08T09:18:41.417Z,4.28
2022-12-08T09:21:14.849Z,4.47
2022-12-08T09:23:41.150Z,5.68
2022-12-08T09:26:07.975Z,3.85
2022-12-08T09:28:34.993Z,6.60
2022-12-08T09:31:02.092Z,4.97
2022-12-08T09:33:28.523Z,4.78
2022-12-08T09:35:54.846Z,5.82
2022-12-08T09:38:21.204Z,2.45
2022-12-08T09:40:53.028Z,4.13
2022-12-08T09:43:59.580Z,4.68
2022-12-08T09:46:29.506Z,3.80
2022-12-08T09:48:58.756Z,5.18
2022-12-08T09:51:27.891Z,4.05
2022-12-08T09:54:21.408Z,5.50
2022-12-08T09:56:49.285Z,5.65
2022-12-08T09:59:31.616Z,3.30
2022-12-08T10:01:58.126Z,4.90
2022-12-08T10:04:33.858Z,4.25
2022-12-08T10:07:07.608Z,5.78
2022-12-08T10:09:52.496Z,5.45
2022-12-08T10:12:25.736Z,3.60
2022-12-08T10:15:13.463Z,3.90
2022-12-08T10:17:48.322Z,4.65
2022-12-08T10:20:20.044Z,3.30
2022-12-08T10:22:51.537Z,4.53
2022-12-08T10:25:22.135Z,1.75
2022-12-08T10:27:53.112Z,2.20
2022-12-08T10:30:21.337Z,2.60
2022-12-08T10:32:53.085Z,3.45
2022-12-08T10:35:21.416Z,2.17
2022-12-08T10:37:59.933Z,4.30
2022-12-08T10:40:40.577Z,3.08
2022-12-08T10:43:17.441Z,4.03
2022-12-08T10:45:44.825Z,1.98
2022-12-08T10:48:21.357Z,3.47
2022-12-08T10:50:53.709Z,2.78
2022-12-08T10:53:22.004Z,1.48
2022-12-08T10:55:51.698Z,2.13
2022-12-08T10:58:35.094Z,1.42
2022-12-08T11:01:06.407Z,1.77
2022-12-08T11:03:40.890Z,2.03
2022-12-08T11:06:20.013Z,1.63
2022-12-08T11:08:50.303Z,2.10
2022-12-08T11:11:17.876Z,1.40
2022-12-08T11:13:44.462Z,4.43
2022-12-08T11:16:15.937Z,1.67
2022-12-08T11:18:46.816Z,2.28
2022-12-08T11:21:17.087Z,4.72
2022-12-08T11:23:48.128Z,2.97
2022-12-08T11:26:25.665Z,5.72
2022-12-08T11:28:52.081Z,2.53
2022-12-08T11:31:29.098Z,2.33
2022-12-08T11:33:56.727Z,2.70
2022-12-08T11:36:26.834Z,3.35
2022-12-08T11:38:57.059Z,3.72
2022-12-08T11:41:29.518Z,5.80
2022-12-08T11:44:05.495Z,6.78
2022-12-08T11:46:48.615Z,5.03
2022-12-08T11:49:15.326Z,8.20
2022-12-08T11:51:59.795Z,12.23
2022-12-08T11:54:45.111Z,3.22
2022-12-08T11:57:20.590Z,4.80
2022-12-08T11:59:51.824Z,2.33
2022-12-08T12:02:21.856Z,6.75
2022-12-08T12:05:47.461Z,4.75
2022-12-08T12:08:57.949Z,6.30
2022-12-08T12:12:02.078Z,4.88
2022-12-08T12:14:57.393Z,7.97
2022-12-08T12:17:39.025Z,4.40
2022-12-08T12:20:15.500Z,6.15
2022-12-08T12:22:46.506Z,3.50
2022-12-08T12:25:19.022Z,4.15
2022-12-08T12:27:45.868Z,4.53
2022-12-08T12:30:32.763Z,4.03
2022-12-08T12:33:01.972Z,3.15
2022-12-08T12:35:38.035Z,6.95
2022-12-08T12:38:38.266Z,4.78
2022-12-08T12:41:07.400Z,6.15
2022-12-08T12:43:36.391Z,7.25
2022-12-08T12:46:35.048Z,4.75
2022-12-08T12:49:39.080Z,7.40
2022-12-08T12:52:31.078Z,9.45
2022-12-08T12:54:57.313Z,8.82
2022-12-08T12:57:25.781Z,4.45
2022-12-08T12:59:55.503Z,4.97
2022-12-08T13:02:45.706Z,4.37
2022-12-08T13:05:30.273Z,5.50
2022-12-08T13:07:59.130Z,5.20
2022-12-08T13:10:33.004Z,3.67
2022-12-08T13:13:17.818Z,2.10
2022-12-08T13:15:56.170Z,2.80
2022-12-08T13:18:36.305Z,10.05
2022-12-08T13:21:05.622Z,5.60
2022-12-08T13:23:37.807Z,6.55
2022-12-08T13:26:18.292Z,4.13
2022-12-08T13:29:03.701Z,3.13
2022-12-08T13:31:51.491Z,4.88
2022-12-08T13:34:30.296Z,5.05
2022-12-08T13:37:18.798Z,4.03
2022-12-08T13:39:59.139Z,4.30
2022-12-08T13:42:28.536Z,7.70
2022-12-08T13:45:24.078Z,4.05
2022-12-08T13:57:08.439Z,6.45
2022-12-08T13:59:43.674Z,5.63
2022-12-08T14:02:18.063Z,5.05
2022-12-08T14:05:16.905Z,4.45
2022-12-08T14:07:34.161Z,8.52
2022-12-08T14:10:03.407Z,4.95
2022-12-08T14:12:31.095Z,7.85
2022-12-08T14:15:04.140Z,6.70
2022-12-08T14:17:31.230Z,5.70
2022-12-08T14:19:58.943Z,3.97
2022-12-08T14:22:32.217Z,4.10
2022-12-08T14:24:58.732Z,5.57
2022-12-08T14:27:26.931Z,8.40
2022-12-08T14:29:56.829Z,7.55
2022-12-08T14:32:44.293Z,7.15
2022-12-08T14:35:10.650Z,4.53
2022-12-08T14:37:41.514Z,3.50
2022-12-08T14:40:44.913Z,4.28
2022-12-08T14:43:13.399Z,3.60
2022-12-08T14:45:42.777Z,3.08
2022-12-08T14:48:26.897Z,3.83
2022-12-08T14:51:11.677Z,4.47
2022-12-08T14:53:41.334Z,4.65
2022-12-08T14:56:17.428Z,3.30
2022-12-08T14:58:43.952Z,3.30
2022-12-08T15:01:16.934Z,4.05
2022-12-08T15:03:50.466Z,4.07
2022-12-08T15:06:21.278Z,5.15
2022-12-08T15:08:54.068Z,4.23
2022-12-08T15:11:23.745Z,4.43
2022-12-08T15:13:52.434Z,2.80
2022-12-08T15:16:43.410Z,2.80
2022-12-08T15:19:33.864Z,3.33
2022-12-08T15:22:17.776Z,3.63
2022-12-08T15:24:44.080Z,4.13
2022-12-08T15:27:18.311Z,9.20
2022-12-08T15:29:46.909Z,7.55
2022-12-08T15:32:17.982Z,6.20
2022-12-08T15:37:20.375Z,5.57
2022-12-08T15:39:46.805Z,10.95
2022-12-08T15:42:13.502Z,7.70
2022-12-08T15:44:40.217Z,7.82
2022-12-08T15:47:11.554Z,6.57
2022-12-08T15:49:38.773Z,7.97
2022-12-08T15:52:12.178Z,6.30
2022-12-08T15:54:38.708Z,7.10
2022-12-08T15:57:25.035Z,7.03
2022-12-08T15:59:52.341Z,4.10
2022-12-08T16:02:22.533Z,5.35
2022-12-08T16:07:38.042Z,2.50
2022-12-08T16:10:06.150Z,6.40
2022-12-08T16:16:00.888Z,5.22
2022-12-08T16:18:31.388Z,4.30
2022-12-08T16:21:09.679Z,6.30
2022-12-08T16:23:44.952Z,8.60
2022-12-08T16:26:28.371Z,7.95
2022-12-08T16:29:02.027Z,8.45
2022-12-08T16:31:28.466Z,8.05
2022-12-08T16:33:54.847Z,10.73
2022-12-08T16:36:21.137Z,10.43
2022-12-08T16:38:47.455Z,9.68
2022-12-08T16:41:33.083Z,8.27
2022-12-08T16:44:04.933Z,7.53
2022-12-08T16:46:31.585Z,7.80
2022-12-08T16:48:58.825Z,7.30
2022-12-08T16:51:27.232Z,9.30
2022-12-08T16:53:58.151Z,7.90
2022-12-08T16:56:31.865Z,7.07
2022-12-08T16:58:59.588Z,8.63
2022-12-08T17:01:26.024Z,6.57
2022-12-08T17:04:22.405Z,9.32
2022-12-08T17:06:38.767Z,10.82
2022-12-08T17:09:05.188Z,7.97
2022-12-08T17:11:36.222Z,7.88
2022-12-08T17:14:05.598Z,8.88
2022-12-08T17:16:32.040Z,11.00
2022-12-08T17:18:58.492Z,12.57
2022-12-08T17:21:24.821Z,12.68
2022-12-08T17:23:51.166Z,10.73
2022-12-08T17:26:17.469Z,9.38
2022-12-08T17:29:02.263Z,9.85
2022-12-08T17:31:31.586Z,10.15
2022-12-08T17:34:10.051Z,10.57
2022-12-08T17:36:36.884Z,10.15
2022-12-08T17:39:04.317Z,9.38
2022-12-08T17:41:30.837Z,12.23
2022-12-08T17:43:57.410Z,10.18
2022-12-08T17:46:24.266Z,13.77
2022-12-08T17:48:50.686Z,11.13
2022-12-08T17:51:17.003Z,14.95
2022-12-08T17:53:43.365Z,11.35
2022-12-08T17:56:18.685Z,10.23
2022-12-08T17:58:48.667Z,13.00
2022-12-08T18:01:19.253Z,13.52
2022-12-08T18:03:45.649Z,11.85
2022-12-08T18:06:12.552Z,14.13
2022-12-08T18:08:39.534Z,11.95
2022-12-08T18:11:12.180Z,12.77
2022-12-08T18:13:38.486Z,13.88
2022-12-08T18:16:04.984Z,14.38
2022-12-08T18:18:31.301Z,16.50
2022-12-08T18:20:57.616Z,16.52
2022-12-08T18:23:23.907Z,15.18
2022-12-08T18:25:50.247Z,17.38
2022-12-08T18:28:16.567Z,18.42
2022-12-08T18:30:42.971Z,27.35
2022-12-08T18:33:09.436Z,25.98
2022-12-08T18:35:39.418Z,18.55
2022-12-08T18:38:05.843Z,13.55
2022-12-08T18:40:32.204Z,10.68
2022-12-08T18:42:58.541Z,9.98
2022-12-08T18:45:24.924Z,12.85
2022-12-08T18:47:51.766Z,11.45
2022-12-08T18:50:18.521Z,12.02
2022-12-08T18:52:45.877Z,13.23
2022-12-08T18:55:12.519Z,12.52
2022-12-08T18:57:42.298Z,13.18
2022-12-08T19:00:16.747Z,12.05
2022-12-08T19:02:43.218Z,13.77
2022-12-08T19:05:14.077Z,14.88
2022-12-08T19:07:42.409Z,14.98
2022-12-08T19:10:10.032Z,12.93
2022-12-08T19:12:36.860Z,16.10
2022-12-08T19:15:04.531Z,13.85
2022-12-08T19:17:31.104Z,15.80
2022-12-08T19:19:57.589Z,15.23
2022-12-08T19:22:23.925Z,14.05
2022-12-08T19:24:50.283Z,13.27
2022-12-08T19:27:16.916Z,17.33
2022-12-08T19:29:43.251Z,15.23
2022-12-08T19:32:09.688Z,15.13
2022-12-08T19:34:36.062Z,12.57
2022-12-08T19:37:02.507Z,11.45
2022-12-08T19:39:47.413Z,11.57
2022-12-08T19:42:38.481Z,11.73
2022-12-08T19:45:15.125Z,13.63
2022-12-08T19:47:42.325Z,12.07
2022-12-08T19:50:30.013Z,10.98
2022-12-08T19:52:56.459Z,10.27
2022-12-08T19:55:23.519Z,13.40
2022-12-08T19:57:51.002Z,11.35
2022-12-08T20:00:19.043Z,11.77
2022-12-08T20:02:46.751Z,12.63
2022-12-08T20:05:13.870Z,14.35
2022-12-08T20:07:40.661Z,11.77
2022-12-08T20:10:12.097Z,13.57
2022-12-08T20:12:38.400Z,13.75
2022-12-08T20:15:05.228Z,13.55
2022-12-08T20:17:31.592Z,12.15
2022-12-08T20:20:00.491Z,13.32
2022-12-08T20:25:00.679Z,13.50
2022-12-08T20:27:28.853Z,15.88
2022-12-08T20:29:55.139Z,13.63
2022-12-08T20:32:21.501Z,15.10
2022-12-08T20:34:47.851Z,13.18
2022-12-08T20:37:14.176Z,15.30
2022-12-08T20:39:40.513Z,13.75
2022-12-08T20:42:06.841Z,17.60
2022-12-08T20:44:33.155Z,15.27
2022-12-08T20:47:00.810Z,15.27
2022-12-08T20:49:32.902Z,14.50
2022-12-08T20:52:01.095Z,15.80
2022-12-08T20:54:28.072Z,15.68
2022-12-08T20:56:54.461Z,15.48
2022-12-08T20:59:20.832Z,18.80
2022-12-08T21:01:47.316Z,16.35
2022-12-08T21:04:14.012Z,16.33
2022-12-08T21:06:40.636Z,17.27
2022-12-08T21:09:07.279Z,16.33
2022-12-08T21:11:33.802Z,17.80
2022-12-08T21:14:00.350Z,22.67
2022-12-08T21:16:27.021Z,25.60
2022-12-08T21:18:53.583Z,21.52
2022-12-08T21:21:20.033Z,22.98
2022-12-08T21:23:46.582Z,22.08
2022-12-08T21:26:15.921Z,22.65
2022-12-08T21:28:42.953Z,26.15
2022-12-08T21:31:11.671Z,26.80
2022-12-08T21:33:38.792Z,20.92
2022-12-08T21:36:09.088Z,22.77
2022-12-08T21:38:36.912Z,21.60
2022-12-08T21:41:15.839Z,26.63
2022-12-08T21:43:43.224Z,23.98
2022-12-08T21:46:17.351Z,26.50
2022-12-08T21:48:43.945Z,26.15
2022-12-08T21:51:10.595Z,24.63
2022-12-08T21:53:37.074Z,27.83
2022-12-08T21:56:08.821Z,29.33
2022-12-08T21:58:35.395Z,27.33
2022-12-08T22:01:10.033Z,32.58
2022-12-08T22:03:39.197Z,33.13
2022-12-08T22:06:10.866Z,30.15
2022-12-08T22:08:37.880Z,28.85
2022-12-08T22:11:05.392Z,29.83
2022-12-08T22:13:35.012Z,32.83
2022-12-08T22:16:03.815Z,29.33
2022-12-08T22:18:30.536Z,29.92
2022-12-08T22:20:57.180Z,31.58
2022-12-08T22:23:23.910Z,29.58
2022-12-08T22:26:00.606Z,30.40
2022-12-08T22:28:28.037Z,32.47
2022-12-08T22:30:54.362Z,34.20
2022-12-08T22:33:20.722Z,29.38
2022-12-08T22:36:06.288Z,31.58
2022-12-08T22:38:36.273Z,36.70
2022-12-08T22:41:04.904Z,33.88
2022-12-08T22:43:31.769Z,33.40
2022-12-08T22:45:58.639Z,31.92
2022-12-08T22:48:25.432Z,35.88
2022-12-08T22:50:51.737Z,34.33
2022-12-08T22:53:18.054Z,35.97
2022-12-08T22:55:45.137Z,40.65
2022-12-08T22:58:11.904Z,34.97
2022-12-08T23:00:38.973Z,32.83
2022-12-08T23:03:06.305Z,34.38
2022-12-08T23:05:38.406Z,34.58
2022-12-08T23:08:06.599Z,36.67
2022-12-08T23:10:34.535Z,36.15
2022-12-08T23:13:03.923Z,34.60
2022-12-08T23:15:30.643Z,36.67
2022-12-08T23:17:57.033Z,36.15
2022-12-08T23:20:23.699Z,38.70
2022-12-08T23:22:50.211Z,35.65
2022-12-08T23:25:18.153Z,34.63
2022-12-08T23:27:45.599Z,33.75
2022-12-08T23:30:13.538Z,33.78
2022-12-08T23:32:40.290Z,30.88
2022-12-08T23:35:08.055Z,35.55
2022-12-08T23:37:34.816Z,32.28
2022-12-08T23:40:01.419Z,33.60
2022-12-08T23:42:30.113Z,31.90
2022-12-08T23:44:57.090Z,32.17
2022-12-08T23:47:23.450Z,29.52
2022-12-08T23:49:49.909Z,28.70
2022-12-08T23:52:16.204Z,31.17
2022-12-08T23:54:42.569Z,32.05
2022-12-08T23:57:08.938Z,35.42
2022-12-08T23:59:35.272Z,33.38
